sensor_id;sensor_type;location;lat;lon;timestamp;P1;durP1;ratioP1;P2;durP2;ratioP2
55082;SDS011;40978;52.850;6.506;2022-11-23T00:02:25;15.43;;;8.77;;
55082;SDS011;40978;52.850;6.506;2022-11-23T00:04:51;14.15;;;9.02;;
55082;SDS011;40978;52.850;6.506;2022-11-23T00:07:16;16.98;;;8.70;;
55082;SDS011;40978;52.850;6.506;2022-11-23T00:09:42;9.18;;;7.80;;
55082;SDS011;40978;52.850;6.506;2022-11-23T00:12:07;13.88;;;8.50;;
55082;SDS011;40978;52.850;6.506;2022-11-23T00:14:33;13.63;;;8.23;;
55082;SDS011;40978;52.850;6.506;2022-11-23T00:16:59;10.93;;;7.70;;
55082;SDS011;40978;52.850;6.506;2022-11-23T00:19:25;12.65;;;8.63;;
55082;SDS011;40978;52.850;6.506;2022-11-23T00:21:50;11.63;;;8.32;;
55082;SDS011;40978;52.850;6.506;2022-11-23T00:24:16;15.18;;;8.27;;
55082;SDS011;40978;52.850;6.506;2022-11-23T00:26:42;11.07;;;7.85;;
55082;SDS011;40978;52.850;6.506;2022-11-23T00:29:07;11.95;;;8.10;;
55082;SDS011;40978;52.850;6.506;2022-11-23T00:31:33;15.32;;;8.55;;
55082;SDS011;40978;52.850;6.506;2022-11-23T00:33:59;15.50;;;8.10;;
55082;SDS011;40978;52.850;6.506;2022-11-23T00:36:26;13.45;;;7.97;;
55082;SDS011;40978;52.850;6.506;2022-11-23T00:38:52;13.65;;;8.73;;
55082;SDS011;40978;52.850;6.506;2022-11-23T00:41:23;11.63;;;7.97;;
55082;SDS011;40978;52.850;6.506;2022-11-23T00:43:50;15.02;;;8.10;;
55082;SDS011;40978;52.850;6.506;2022-11-23T00:46:25;13.98;;;8.13;;
55082;SDS011;40978;52.850;6.506;2022-11-23T00:48:53;14.88;;;8.57;;
55082;SDS011;40978;52.850;6.506;2022-11-23T00:51:21;15.57;;;8.43;;
55082;SDS011;40978;52.850;6.506;2022-11-23T00:53:48;16.48;;;9.10;;
55082;SDS011;40978;52.850;6.506;2022-11-23T00:56:15;16.17;;;8.80;;
55082;SDS011;40978;52.850;6.506;2022-11-23T00:58:45;18.48;;;9.20;;
55082;SDS011;40978;52.850;6.506;2022-11-23T01:01:15;16.15;;;9.43;;
55082;SDS011;40978;52.850;6.506;2022-11-23T01:03:43;17.52;;;8.75;;
55082;SDS011;40978;52.850;6.506;2022-11-23T01:06:12;14.80;;;8.75;;
55082;SDS011;40978;52.850;6.506;2022-11-23T01:08:42;14.80;;;8.20;;
55082;SDS011;40978;52.850;6.506;2022-11-23T01:11:11;15.98;;;8.02;;
55082;SDS011;40978;52.850;6.506;2022-11-23T01:13:38;12.70;;;9.10;;
55082;SDS011;40978;52.850;6.506;2022-11-23T01:16:06;15.20;;;8.55;;
55082;SDS011;40978;52.850;6.506;2022-11-23T01:18:42;12.75;;;8.02;;
55082;SDS011;40978;52.850;6.506;2022-11-23T01:21:08;13.55;;;8.50;;
55082;SDS011;40978;52.850;6.506;2022-11-23T01:23:34;13.43;;;8.98;;
55082;SDS011;40978;52.850;6.506;2022-11-23T01:26:07;12.95;;;8.48;;
55082;SDS011;40978;52.850;6.506;2022-11-23T01:28:35;11.45;;;8.02;;
55082;SDS011;40978;52.850;6.506;2022-11-23T01:31:03;12.10;;;8.10;;
55082;SDS011;40978;52.850;6.506;2022-11-23T01:33:30;15.65;;;7.72;;
55082;SDS011;40978;52.850;6.506;2022-11-23T01:35:56;11.65;;;7.88;;
55082;SDS011;40978;52.850;6.506;2022-11-23T01:38:21;15.98;;;7.78;;
55082;SDS011;40978;52.850;6.506;2022-11-23T01:40:47;12.68;;;8.32;;
55082;SDS011;40978;52.850;6.506;2022-11-23T01:43:14;14.35;;;8.30;;
55082;SDS011;40978;52.850;6.506;2022-11-23T01:45:42;13.55;;;7.97;;
55082;SDS011;40978;52.850;6.506;2022-11-23T01:51:29;13.05;;;8.68;;
55082;SDS011;40978;52.850;6.506;2022-11-23T01:53:59;13.75;;;8.60;;
55082;SDS011;40978;52.850;6.506;2022-11-23T01:56:31;15.38;;;8.82;;
55082;SDS011;40978;52.850;6.506;2022-11-23T01:59:02;13.23;;;8.63;;
55082;SDS011;40978;52.850;6.506;2022-11-23T02:01:31;12.70;;;8.10;;
55082;SDS011;40978;52.850;6.506;2022-11-23T02:03:58;13.48;;;8.95;;
55082;SDS011;40978;52.850;6.506;2022-11-23T02:06:26;14.05;;;9.15;;
55082;SDS011;40978;52.850;6.506;2022-11-23T02:08:52;15.13;;;8.57;;
55082;SDS011;40978;52.850;6.506;2022-11-23T02:11:18;16.33;;;9.40;;
55082;SDS011;40978;52.850;6.506;2022-11-23T02:13:45;16.13;;;10.70;;
55082;SDS011;40978;52.850;6.506;2022-11-23T02:16:12;14.00;;;8.75;;
55082;SDS011;40978;52.850;6.506;2022-11-23T02:18:40;18.17;;;9.93;;
55082;SDS011;40978;52.850;6.506;2022-11-23T02:21:07;17.15;;;9.98;;
55082;SDS011;40978;52.850;6.506;2022-11-23T02:29:08;14.25;;;10.40;;
55082;SDS011;40978;52.850;6.506;2022-11-23T02:31:45;15.30;;;9.10;;
55082;SDS011;40978;52.850;6.506;2022-11-23T02:34:11;13.07;;;10.05;;
55082;SDS011;40978;52.850;6.506;2022-11-23T02:36:40;17.75;;;10.38;;
55082;SDS011;40978;52.850;6.506;2022-11-23T02:39:08;17.20;;;10.10;;
55082;SDS011;40978;52.850;6.506;2022-11-23T02:41:44;18.02;;;10.07;;
55082;SDS011;40978;52.850;6.506;2022-11-23T02:44:18;16.90;;;11.57;;
55082;SDS011;40978;52.850;6.506;2022-11-23T02:46:52;16.63;;;10.60;;
55082;SDS011;40978;52.850;6.506;2022-11-23T02:49:18;18.83;;;11.75;;
55082;SDS011;40978;52.850;6.506;2022-11-23T02:51:44;18.17;;;12.02;;
55082;SDS011;40978;52.850;6.506;2022-11-23T02:54:09;19.98;;;11.50;;
55082;SDS011;40978;52.850;6.506;2022-11-23T02:56:35;23.70;;;12.95;;
55082;SDS011;40978;52.850;6.506;2022-11-23T02:59:01;18.23;;;12.15;;
55082;SDS011;40978;52.850;6.506;2022-11-23T03:01:27;21.65;;;13.15;;
55082;SDS011;40978;52.850;6.506;2022-11-23T03:03:53;20.23;;;13.25;;
55082;SDS011;40978;52.850;6.506;2022-11-23T03:06:19;19.42;;;13.23;;
55082;SDS011;40978;52.850;6.506;2022-11-23T03:08:44;19.88;;;14.13;;
55082;SDS011;40978;52.850;6.506;2022-11-23T03:11:10;24.83;;;15.02;;
55082;SDS011;40978;52.850;6.506;2022-11-23T03:13:36;24.15;;;14.80;;
55082;SDS011;40978;52.850;6.506;2022-11-23T03:16:01;24.60;;;15.02;;
55082;SDS011;40978;52.850;6.506;2022-11-23T03:18:27;24.75;;;15.60;;
55082;SDS011;40978;52.850;6.506;2022-11-23T03:20:53;25.20;;;16.52;;
55082;SDS011;40978;52.850;6.506;2022-11-23T03:23:18;25.92;;;16.20;;
55082;SDS011;40978;52.850;6.506;2022-11-23T03:25:44;28.52;;;16.23;;
55082;SDS011;40978;52.850;6.506;2022-11-23T03:28:10;27.90;;;17.00;;
55082;SDS011;40978;52.850;6.506;2022-11-23T03:30:35;28.65;;;17.33;;
55082;SDS011;40978;52.850;6.506;2022-11-23T03:33:01;28.23;;;17.02;;
55082;SDS011;40978;52.850;6.506;2022-11-23T03:35:27;26.05;;;17.27;;
55082;SDS011;40978;52.850;6.506;2022-11-23T03:37:53;29.92;;;16.67;;
55082;SDS011;40978;52.850;6.506;2022-11-23T03:40:18;28.83;;;18.20;;
55082;SDS011;40978;52.850;6.506;2022-11-23T03:42:44;29.25;;;18.38;;
55082;SDS011;40978;52.850;6.506;2022-11-23T03:45:10;36.45;;;20.05;;
55082;SDS011;40978;52.850;6.506;2022-11-23T03:47:35;25.15;;;18.58;;
55082;SDS011;40978;52.850;6.506;2022-11-23T03:50:01;33.40;;;19.02;;
55082;SDS011;40978;52.850;6.506;2022-11-23T03:52:27;32.33;;;19.95;;
55082;SDS011;40978;52.850;6.506;2022-11-23T03:54:52;35.30;;;19.83;;
55082;SDS011;40978;52.850;6.506;2022-11-23T03:57:18;32.40;;;20.52;;
55082;SDS011;40978;52.850;6.506;2022-11-23T03:59:44;37.10;;;20.02;;
55082;SDS011;40978;52.850;6.506;2022-11-23T04:02:09;30.08;;;20.17;;
55082;SDS011;40978;52.850;6.506;2022-11-23T04:04:35;32.80;;;21.25;;
55082;SDS011;40978;52.850;6.506;2022-11-23T04:07:01;31.65;;;22.27;;
55082;SDS011;40978;52.850;6.506;2022-11-23T04:09:27;31.52;;;21.10;;
55082;SDS011;40978;52.850;6.506;2022-11-23T04:11:53;40.42;;;22.42;;
55082;SDS011;40978;52.850;6.506;2022-11-23T04:14:18;35.10;;;21.15;;
55082;SDS011;40978;52.850;6.506;2022-11-23T04:16:44;37.33;;;22.35;;
55082;SDS011;40978;52.850;6.506;2022-11-23T04:19:10;41.97;;;23.30;;
55082;SDS011;40978;52.850;6.506;2022-11-23T04:21:35;33.75;;;22.70;;
55082;SDS011;40978;52.850;6.506;2022-11-23T04:24:01;31.30;;;21.75;;
55082;SDS011;40978;52.850;6.506;2022-11-23T04:26:27;36.95;;;23.08;;
55082;SDS011;40978;52.850;6.506;2022-11-23T04:28:53;37.80;;;22.63;;
55082;SDS011;40978;52.850;6.506;2022-11-23T04:31:18;33.75;;;21.52;;
55082;SDS011;40978;52.850;6.506;2022-11-23T04:33:44;34.45;;;21.33;;
55082;SDS011;40978;52.850;6.506;2022-11-23T04:36:09;34.78;;;21.63;;
55082;SDS011;40978;52.850;6.506;2022-11-23T04:38:35;33.65;;;22.30;;
55082;SDS011;40978;52.850;6.506;2022-11-23T04:41:01;34.15;;;22.52;;
55082;SDS011;40978;52.850;6.506;2022-11-23T04:43:27;34.28;;;22.08;;
55082;SDS011;40978;52.850;6.506;2022-11-23T04:45:52;36.17;;;23.27;;
55082;SDS011;40978;52.850;6.506;2022-11-23T04:48:18;34.63;;;22.33;;
55082;SDS011;40978;52.850;6.506;2022-11-23T04:50:44;34.63;;;21.92;;
55082;SDS011;40978;52.850;6.506;2022-11-23T04:53:09;44.88;;;23.58;;
55082;SDS011;40978;52.850;6.506;2022-11-23T04:55:35;30.05;;;21.77;;
55082;SDS011;40978;52.850;6.506;2022-11-23T04:58:01;30.52;;;19.98;;
55082;SDS011;40978;52.850;6.506;2022-11-23T05:00:27;33.88;;;21.10;;
55082;SDS011;40978;52.850;6.506;2022-11-23T05:02:52;35.58;;;21.55;;
55082;SDS011;40978;52.850;6.506;2022-11-23T05:05:18;38.40;;;22.63;;
55082;SDS011;40978;52.850;6.506;2022-11-23T05:07:44;28.23;;;19.70;;
55082;SDS011;40978;52.850;6.506;2022-11-23T05:10:09;31.00;;;20.75;;
55082;SDS011;40978;52.850;6.506;2022-11-23T05:12:36;35.08;;;21.65;;
55082;SDS011;40978;52.850;6.506;2022-11-23T05:15:02;28.42;;;20.40;;
55082;SDS011;40978;52.850;6.506;2022-11-23T05:17:28;32.67;;;19.52;;
55082;SDS011;40978;52.850;6.506;2022-11-23T05:19:54;35.55;;;18.60;;
55082;SDS011;40978;52.850;6.506;2022-11-23T05:22:20;29.70;;;18.65;;
55082;SDS011;40978;52.850;6.506;2022-11-23T05:24:46;32.40;;;18.25;;
55082;SDS011;40978;52.850;6.506;2022-11-23T05:27:11;28.85;;;17.58;;
55082;SDS011;40978;52.850;6.506;2022-11-23T05:29:37;35.28;;;18.38;;
55082;SDS011;40978;52.850;6.506;2022-11-23T05:32:03;29.60;;;16.77;;
55082;SDS011;40978;52.850;6.506;2022-11-23T05:34:29;24.52;;;15.85;;
55082;SDS011;40978;52.850;6.506;2022-11-23T05:36:55;24.63;;;15.75;;
55082;SDS011;40978;52.850;6.506;2022-11-23T05:39:20;26.83;;;16.75;;
55082;SDS011;40978;52.850;6.506;2022-11-23T05:41:47;22.10;;;15.63;;
55082;SDS011;40978;52.850;6.506;2022-11-23T05:44:12;19.90;;;14.82;;
55082;SDS011;40978;52.850;6.506;2022-11-23T05:46:38;27.63;;;15.00;;
55082;SDS011;40978;52.850;6.506;2022-11-23T05:49:04;30.48;;;15.32;;
55082;SDS011;40978;52.850;6.506;2022-11-23T05:51:29;25.90;;;14.18;;
55082;SDS011;40978;52.850;6.506;2022-11-23T05:53:56;22.63;;;13.93;;
55082;SDS011;40978;52.850;6.506;2022-11-23T05:56:22;19.95;;;14.13;;
55082;SDS011;40978;52.850;6.506;2022-11-23T05:58:48;22.05;;;13.60;;
55082;SDS011;40978;52.850;6.506;2022-11-23T06:01:13;25.40;;;13.75;;
55082;SDS011;40978;52.850;6.506;2022-11-23T06:03:39;24.38;;;13.55;;
55082;SDS011;40978;52.850;6.506;2022-11-23T06:06:05;25.65;;;12.23;;
55082;SDS011;40978;52.850;6.506;2022-11-23T06:08:31;23.60;;;12.80;;
55082;SDS011;40978;52.850;6.506;2022-11-23T06:10:59;21.23;;;13.55;;
55082;SDS011;40978;52.850;6.506;2022-11-23T06:13:25;26.42;;;13.02;;
55082;SDS011;40978;52.850;6.506;2022-11-23T06:15:51;24.23;;;12.75;;
55082;SDS011;40978;52.850;6.506;2022-11-23T06:18:17;22.38;;;11.23;;
55082;SDS011;40978;52.850;6.506;2022-11-23T06:20:42;21.00;;;11.90;;
55082;SDS011;40978;52.850;6.506;2022-11-23T06:23:08;18.88;;;12.00;;
55082;SDS011;40978;52.850;6.506;2022-11-23T06:25:34;22.48;;;11.27;;
55082;SDS011;40978;52.850;6.506;2022-11-23T06:28:02;22.58;;;10.95;;
55082;SDS011;40978;52.850;6.506;2022-11-23T06:30:28;20.38;;;10.80;;
55082;SDS011;40978;52.850;6.506;2022-11-23T06:32:55;20.45;;;11.13;;
55082;SDS011;40978;52.850;6.506;2022-11-23T06:35:21;22.30;;;10.07;;
55082;SDS011;40978;52.850;6.506;2022-11-23T06:37:48;22.33;;;10.98;;
55082;SDS011;40978;52.850;6.506;2022-11-23T06:40:14;20.52;;;10.05;;
55082;SDS011;40978;52.850;6.506;2022-11-23T06:42:40;20.75;;;9.43;;
55082;SDS011;40978;52.850;6.506;2022-11-23T06:45:06;22.85;;;9.23;;
55082;SDS011;40978;52.850;6.506;2022-11-23T06:47:33;20.63;;;8.65;;
55082;SDS011;40978;52.850;6.506;2022-11-23T06:49:59;16.88;;;8.82;;
55082;SDS011;40978;52.850;6.506;2022-11-23T06:52:24;26.58;;;9.35;;
55082;SDS011;40978;52.850;6.506;2022-11-23T06:54:50;25.48;;;9.05;;
55082;SDS011;40978;52.850;6.506;2022-11-23T06:57:16;21.05;;;8.88;;
55082;SDS011;40978;52.850;6.506;2022-11-23T06:59:41;19.58;;;7.57;;
55082;SDS011;40978;52.850;6.506;2022-11-23T07:02:09;22.15;;;8.27;;
55082;SDS011;40978;52.850;6.506;2022-11-23T07:04:36;18.13;;;7.20;;
55082;SDS011;40978;52.850;6.506;2022-11-23T07:07:01;19.55;;;8.15;;
55082;SDS011;40978;52.850;6.506;2022-11-23T07:09:27;17.38;;;7.25;;
55082;SDS011;40978;52.850;6.506;2022-11-23T07:11:53;19.17;;;7.55;;
55082;SDS011;40978;52.850;6.506;2022-11-23T07:14:19;20.02;;;8.15;;
55082;SDS011;40978;52.850;6.506;2022-11-23T07:16:44;19.42;;;7.80;;
55082;SDS011;40978;52.850;6.506;2022-11-23T07:19:10;17.58;;;7.75;;
55082;SDS011;40978;52.850;6.506;2022-11-23T07:21:36;14.55;;;7.20;;
55082;SDS011;40978;52.850;6.506;2022-11-23T07:24:02;20.73;;;7.93;;
55082;SDS011;40978;52.850;6.506;2022-11-23T07:26:27;15.68;;;6.75;;
55082;SDS011;40978;52.850;6.506;2022-11-23T07:28:53;17.95;;;6.93;;
55082;SDS011;40978;52.850;6.506;2022-11-23T07:31:19;15.98;;;6.38;;
55082;SDS011;40978;52.850;6.506;2022-11-23T07:33:45;15.75;;;6.90;;
55082;SDS011;40978;52.850;6.506;2022-11-23T07:36:11;18.08;;;6.90;;
55082;SDS011;40978;52.850;6.506;2022-11-23T07:38:37;20.17;;;7.68;;
55082;SDS011;40978;52.850;6.506;2022-11-23T07:41:03;15.60;;;6.70;;
55082;SDS011;40978;52.850;6.506;2022-11-23T07:43:29;16.63;;;6.13;;
55082;SDS011;40978;52.850;6.506;2022-11-23T07:45:55;14.60;;;6.30;;
55082;SDS011;40978;52.850;6.506;2022-11-23T07:48:23;21.05;;;6.70;;
55082;SDS011;40978;52.850;6.506;2022-11-23T07:50:53;12.80;;;6.47;;
55082;SDS011;40978;52.850;6.506;2022-11-23T07:53:19;16.10;;;6.53;;
55082;SDS011;40978;52.850;6.506;2022-11-23T07:55:45;14.75;;;6.40;;
55082;SDS011;40978;52.850;6.506;2022-11-23T07:58:11;19.65;;;6.65;;
55082;SDS011;40978;52.850;6.506;2022-11-23T08:00:37;18.70;;;6.18;;
55082;SDS011;40978;52.850;6.506;2022-11-23T08:03:03;23.85;;;7.18;;
55082;SDS011;40978;52.850;6.506;2022-11-23T08:05:32;21.23;;;7.10;;
55082;SDS011;40978;52.850;6.506;2022-11-23T08:08:00;18.40;;;6.28;;
55082;SDS011;40978;52.850;6.506;2022-11-23T08:10:27;17.35;;;6.40;;
55082;SDS011;40978;52.850;6.506;2022-11-23T08:12:57;15.07;;;5.88;;
55082;SDS011;40978;52.850;6.506;2022-11-23T08:15:27;18.55;;;6.35;;
55082;SDS011;40978;52.850;6.506;2022-11-23T08:17:56;14.38;;;6.10;;
55082;SDS011;40978;52.850;6.506;2022-11-23T08:20:26;15.48;;;5.88;;
55082;SDS011;40978;52.850;6.506;2022-11-23T08:22:52;23.85;;;6.13;;
55082;SDS011;40978;52.850;6.506;2022-11-23T08:25:22;17.52;;;6.10;;
55082;SDS011;40978;52.850;6.506;2022-11-23T08:27:53;19.50;;;6.40;;
55082;SDS011;40978;52.850;6.506;2022-11-23T08:30:19;17.55;;;5.88;;
55082;SDS011;40978;52.850;6.506;2022-11-23T08:32:45;18.70;;;5.95;;
55082;SDS011;40978;52.850;6.506;2022-11-23T08:35:11;17.50;;;5.38;;
55082;SDS011;40978;52.850;6.506;2022-11-23T08:37:37;14.82;;;6.00;;
55082;SDS011;40978;52.850;6.506;2022-11-23T08:40:02;15.30;;;5.13;;
55082;SDS011;40978;52.850;6.506;2022-11-23T08:42:28;17.73;;;5.70;;
55082;SDS011;40978;52.850;6.506;2022-11-23T08:44:54;18.55;;;5.13;;
55082;SDS011;40978;52.850;6.506;2022-11-23T08:47:19;15.43;;;6.03;;
55082;SDS011;40978;52.850;6.506;2022-11-23T08:49:45;19.60;;;5.78;;
55082;SDS011;40978;52.850;6.506;2022-11-23T08:52:11;17.95;;;5.80;;
55082;SDS011;40978;52.850;6.506;2022-11-23T08:54:36;16.75;;;5.40;;
55082;SDS011;40978;52.850;6.506;2022-11-23T08:57:05;14.88;;;4.97;;
55082;SDS011;40978;52.850;6.506;2022-11-23T08:59:30;16.88;;;5.47;;
55082;SDS011;40978;52.850;6.506;2022-11-23T09:01:56;18.52;;;5.80;;
55082;SDS011;40978;52.850;6.506;2022-11-23T09:04:22;17.60;;;5.75;;
55082;SDS011;40978;52.850;6.506;2022-11-23T09:06:48;15.63;;;5.38;;
55082;SDS011;40978;52.850;6.506;2022-11-23T09:09:13;15.40;;;5.70;;
55082;SDS011;40978;52.850;6.506;2022-11-23T09:11:39;13.90;;;5.30;;
55082;SDS011;40978;52.850;6.506;2022-11-23T09:14:05;16.60;;;5.47;;
55082;SDS011;40978;52.850;6.506;2022-11-23T09:16:30;18.65;;;4.82;;
55082;SDS011;40978;52.850;6.506;2022-11-23T09:18:56;19.05;;;5.15;;
55082;SDS011;40978;52.850;6.506;2022-11-23T09:21:22;17.77;;;4.80;;
55082;SDS011;40978;52.850;6.506;2022-11-23T09:23:53;15.57;;;4.38;;
55082;SDS011;40978;52.850;6.506;2022-11-23T09:26:19;19.80;;;4.72;;
55082;SDS011;40978;52.850;6.506;2022-11-23T09:28:45;18.00;;;3.97;;
55082;SDS011;40978;52.850;6.506;2022-11-23T09:31:10;14.73;;;4.50;;
55082;SDS011;40978;52.850;6.506;2022-11-23T09:33:37;13.68;;;3.67;;
55082;SDS011;40978;52.850;6.506;2022-11-23T09:36:03;18.13;;;3.72;;
55082;SDS011;40978;52.850;6.506;2022-11-23T09:38:29;14.50;;;3.92;;
55082;SDS011;40978;52.850;6.506;2022-11-23T09:41:44;15.93;;;4.53;;
55082;SDS011;40978;52.850;6.506;2022-11-23T09:44:01;17.63;;;3.67;;
55082;SDS011;40978;52.850;6.506;2022-11-23T09:46:40;21.25;;;3.80;;
55082;SDS011;40978;52.850;6.506;2022-11-23T09:49:21;18.77;;;4.80;;
55082;SDS011;40978;52.850;6.506;2022-11-23T09:51:52;12.85;;;3.30;;
55082;SDS011;40978;52.850;6.506;2022-11-23T09:54:22;16.83;;;4.30;;
55082;SDS011;40978;52.850;6.506;2022-11-23T09:56:54;14.48;;;3.17;;
55082;SDS011;40978;52.850;6.506;2022-11-23T10:01:59;16.58;;;3.65;;
55082;SDS011;40978;52.850;6.506;2022-11-23T10:04:25;15.35;;;3.25;;
55082;SDS011;40978;52.850;6.506;2022-11-23T10:07:01;15.77;;;3.10;;
55082;SDS011;40978;52.850;6.506;2022-11-23T10:09:55;14.15;;;4.00;;
55082;SDS011;40978;52.850;6.506;2022-11-23T10:15:39;10.80;;;2.70;;
55082;SDS011;40978;52.850;6.506;2022-11-23T10:20:55;10.88;;;2.95;;
55082;SDS011;40978;52.850;6.506;2022-11-23T10:23:38;12.38;;;2.95;;
55082;SDS011;40978;52.850;6.506;2022-11-23T10:26:26;13.27;;;2.80;;
55082;SDS011;40978;52.850;6.506;2022-11-23T10:28:55;20.42;;;2.78;;
55082;SDS011;40978;52.850;6.506;2022-11-23T10:31:26;13.73;;;2.92;;
55082;SDS011;40978;52.850;6.506;2022-11-23T10:36:25;13.60;;;2.92;;
55082;SDS011;40978;52.850;6.506;2022-11-23T10:38:57;16.02;;;3.22;;
55082;SDS011;40978;52.850;6.506;2022-11-23T10:41:24;13.67;;;2.60;;
55082;SDS011;40978;52.850;6.506;2022-11-23T10:49:34;17.00;;;3.22;;
55082;SDS011;40978;52.850;6.506;2022-11-23T10:52:00;16.52;;;2.42;;
55082;SDS011;40978;52.850;6.506;2022-11-23T10:57:30;14.80;;;3.22;;
55082;SDS011;40978;52.850;6.506;2022-11-23T11:02:54;12.68;;;2.65;;
55082;SDS011;40978;52.850;6.506;2022-11-23T11:07:46;12.85;;;2.83;;
55082;SDS011;40978;52.850;6.506;2022-11-23T11:13:02;11.90;;;3.00;;
55082;SDS011;40978;52.850;6.506;2022-11-23T11:18:27;12.07;;;2.80;;
55082;SDS011;40978;52.850;6.506;2022-11-23T11:20:58;14.40;;;2.75;;
55082;SDS011;40978;52.850;6.506;2022-11-23T11:23:26;15.23;;;3.70;;
55082;SDS011;40978;52.850;6.506;2022-11-23T11:29:14;16.55;;;2.78;;
55082;SDS011;40978;52.850;6.506;2022-11-23T11:31:51;15.13;;;3.00;;
55082;SDS011;40978;52.850;6.506;2022-11-23T11:37:21;13.15;;;2.47;;
55082;SDS011;40978;52.850;6.506;2022-11-23T11:39:54;10.77;;;2.75;;
55082;SDS011;40978;52.850;6.506;2022-11-23T11:42:40;12.48;;;2.78;;
55082;SDS011;40978;52.850;6.506;2022-11-23T11:45:30;12.02;;;2.25;;
55082;SDS011;40978;52.850;6.506;2022-11-23T11:51:18;12.82;;;2.33;;
55082;SDS011;40978;52.850;6.506;2022-11-23T11:56:45;12.48;;;2.60;;
55082;SDS011;40978;52.850;6.506;2022-11-23T12:04:43;13.55;;;2.15;;
55082;SDS011;40978;52.850;6.506;2022-11-23T12:07:28;9.88;;;2.15;;
55082;SDS011;40978;52.850;6.506;2022-11-23T12:10:09;12.95;;;2.63;;
55082;SDS011;40978;52.850;6.506;2022-11-23T12:13:24;9.60;;;2.00;;
55082;SDS011;40978;52.850;6.506;2022-11-23T12:16:04;10.10;;;1.75;;
55082;SDS011;40978;52.850;6.506;2022-11-23T12:18:39;13.80;;;2.70;;
55082;SDS011;40978;52.850;6.506;2022-11-23T12:23:55;9.88;;;1.80;;
55082;SDS011;40978;52.850;6.506;2022-11-23T12:26:51;9.40;;;2.33;;
55082;SDS011;40978;52.850;6.506;2022-11-23T12:29:41;11.07;;;2.40;;
55082;SDS011;40978;52.850;6.506;2022-11-23T12:32:25;11.20;;;2.10;;
55082;SDS011;40978;52.850;6.506;2022-11-23T12:38:28;10.88;;;1.40;;
55082;SDS011;40978;52.850;6.506;2022-11-23T12:41:02;14.45;;;1.95;;
55082;SDS011;40978;52.850;6.506;2022-11-23T12:46:36;12.50;;;2.42;;
55082;SDS011;40978;52.850;6.506;2022-11-23T12:49:47;10.23;;;1.60;;
55082;SDS011;40978;52.850;6.506;2022-11-23T12:52:22;11.35;;;2.30;;
55082;SDS011;40978;52.850;6.506;2022-11-23T12:57:37;9.02;;;1.52;;
55082;SDS011;40978;52.850;6.506;2022-11-23T13:00:38;12.73;;;1.63;;
55082;SDS011;40978;52.850;6.506;2022-11-23T13:03:16;15.65;;;2.17;;
55082;SDS011;40978;52.850;6.506;2022-11-23T13:06:13;7.65;;;1.38;;
55082;SDS011;40978;52.850;6.506;2022-11-23T13:12:12;11.05;;;2.13;;
55082;SDS011;40978;52.850;6.506;2022-11-23T13:23:38;11.43;;;2.33;;
55082;SDS011;40978;52.850;6.506;2022-11-23T13:26:14;9.13;;;1.63;;
55082;SDS011;40978;52.850;6.506;2022-11-23T13:28:42;13.35;;;2.08;;
55082;SDS011;40978;52.850;6.506;2022-11-23T13:31:23;7.72;;;1.40;;
55082;SDS011;40978;52.850;6.506;2022-11-23T13:38:54;9.10;;;1.80;;
55082;SDS011;40978;52.850;6.506;2022-11-23T13:46:43;11.50;;;1.63;;
55082;SDS011;40978;52.850;6.506;2022-11-23T13:49:33;6.20;;;1.40;;
55082;SDS011;40978;52.850;6.506;2022-11-23T13:57:22;13.73;;;1.30;;
55082;SDS011;40978;52.850;6.506;2022-11-23T13:59:48;7.72;;;1.35;;
55082;SDS011;40978;52.850;6.506;2022-11-23T14:04:51;7.55;;;1.55;;
55082;SDS011;40978;52.850;6.506;2022-11-23T14:07:23;9.80;;;1.70;;
55082;SDS011;40978;52.850;6.506;2022-11-23T14:15:20;8.98;;;1.52;;
55082;SDS011;40978;52.850;6.506;2022-11-23T14:40:04;6.72;;;1.27;;
55082;SDS011;40978;52.850;6.506;2022-11-23T14:42:41;5.05;;;1.10;;
55082;SDS011;40978;52.850;6.506;2022-11-23T14:45:15;6.22;;;1.10;;
55082;SDS011;40978;52.850;6.506;2022-11-23T14:47:41;8.55;;;1.45;;
55082;SDS011;40978;52.850;6.506;2022-11-23T14:53:01;6.88;;;1.27;;
55082;SDS011;40978;52.850;6.506;2022-11-23T14:55:28;6.70;;;1.30;;
55082;SDS011;40978;52.850;6.506;2022-11-23T14:57:56;6.53;;;1.15;;
55082;SDS011;40978;52.850;6.506;2022-11-23T15:00:29;7.72;;;2.08;;
55082;SDS011;40978;52.850;6.506;2022-11-23T15:03:16;10.02;;;1.50;;
55082;SDS011;40978;52.850;6.506;2022-11-23T15:05:43;8.35;;;1.35;;
55082;SDS011;40978;52.850;6.506;2022-11-23T15:10:51;7.47;;;1.70;;
55082;SDS011;40978;52.850;6.506;2022-11-23T15:13:46;5.30;;;1.40;;
55082;SDS011;40978;52.850;6.506;2022-11-23T15:16:14;5.85;;;1.90;;
55082;SDS011;40978;52.850;6.506;2022-11-23T15:18:42;7.53;;;1.42;;
55082;SDS011;40978;52.850;6.506;2022-11-23T15:23:55;6.47;;;1.77;;
55082;SDS011;40978;52.850;6.506;2022-11-23T15:26:30;8.68;;;1.48;;
55082;SDS011;40978;52.850;6.506;2022-11-23T15:28:57;10.15;;;1.60;;
55082;SDS011;40978;52.850;6.506;2022-11-23T15:33:58;7.90;;;1.70;;
55082;SDS011;40978;52.850;6.506;2022-11-23T15:36:37;9.88;;;1.90;;
55082;SDS011;40978;52.850;6.506;2022-11-23T15:39:04;8.65;;;1.70;;
55082;SDS011;40978;52.850;6.506;2022-11-23T15:41:32;11.18;;;1.75;;
55082;SDS011;40978;52.850;6.506;2022-11-23T15:44:00;9.85;;;2.00;;
55082;SDS011;40978;52.850;6.506;2022-11-23T15:46:38;5.47;;;1.52;;
55082;SDS011;40978;52.850;6.506;2022-11-23T15:49:05;8.23;;;1.58;;
55082;SDS011;40978;52.850;6.506;2022-11-23T15:51:38;8.27;;;1.50;;
55082;SDS011;40978;52.850;6.506;2022-11-23T15:54:10;14.60;;;1.75;;
55082;SDS011;40978;52.850;6.506;2022-11-23T15:56:44;10.40;;;1.70;;
55082;SDS011;40978;52.850;6.506;2022-11-23T16:01:47;7.10;;;2.03;;
55082;SDS011;40978;52.850;6.506;2022-11-23T16:04:26;11.02;;;2.30;;
55082;SDS011;40978;52.850;6.506;2022-11-23T16:07:06;8.27;;;1.60;;
55082;SDS011;40978;52.850;6.506;2022-11-23T16:09:41;6.45;;;1.23;;
55082;SDS011;40978;52.850;6.506;2022-11-23T16:12:27;7.07;;;1.60;;
55082;SDS011;40978;52.850;6.506;2022-11-23T16:14:58;5.82;;;1.40;;
55082;SDS011;40978;52.850;6.506;2022-11-23T16:17:51;7.07;;;1.45;;
55082;SDS011;40978;52.850;6.506;2022-11-23T16:20:17;8.25;;;1.80;;
55082;SDS011;40978;52.850;6.506;2022-11-23T16:22:48;9.10;;;1.70;;
55082;SDS011;40978;52.850;6.506;2022-11-23T16:27:55;8.50;;;1.52;;
55082;SDS011;40978;52.850;6.506;2022-11-23T16:30:34;7.82;;;1.70;;
55082;SDS011;40978;52.850;6.506;2022-11-23T16:33:05;6.70;;;1.80;;
55082;SDS011;40978;52.850;6.506;2022-11-23T16:35:37;7.13;;;1.30;;
55082;SDS011;40978;52.850;6.506;2022-11-23T16:38:03;5.65;;;1.48;;
55082;SDS011;40978;52.850;6.506;2022-11-23T16:40:29;8.35;;;1.63;;
55082;SDS011;40978;52.850;6.506;2022-11-23T16:42:55;7.57;;;1.60;;
55082;SDS011;40978;52.850;6.506;2022-11-23T16:45:21;6.90;;;1.70;;
55082;SDS011;40978;52.850;6.506;2022-11-23T16:47:55;8.38;;;1.70;;
55082;SDS011;40978;52.850;6.506;2022-11-23T16:50:28;3.78;;;1.08;;
55082;SDS011;40978;52.850;6.506;2022-11-23T16:52:55;4.95;;;1.13;;
55082;SDS011;40978;52.850;6.506;2022-11-23T16:55:25;6.22;;;1.75;;
55082;SDS011;40978;52.850;6.506;2022-11-23T16:57:50;7.97;;;1.73;;
55082;SDS011;40978;52.850;6.506;2022-11-23T17:00:18;10.73;;;2.10;;
55082;SDS011;40978;52.850;6.506;2022-11-23T17:02:45;5.00;;;1.50;;
55082;SDS011;40978;52.850;6.506;2022-11-23T17:05:14;6.38;;;1.58;;
55082;SDS011;40978;52.850;6.506;2022-11-23T17:07:41;10.75;;;1.77;;
55082;SDS011;40978;52.850;6.506;2022-11-23T17:10:08;7.55;;;2.00;;